Time;durP1;ratioP1;P1;durP2;ratioP2;P2;SDS_P1;SDS_P2;PMS_P1;PMS_P2;Temp;Humidity;BMP_temperature;BMP_pressure;BME280_temperature;BME280_humidity;BME280_pressure;Samples;Min_cycle;Max_cycle;Signal;HPM_P1;HPM_P2
2022/04/28 00:02:12;;;;;;;;;;;;;;;10.46;91.23;97488.32;109757;1251;70649;-65
2022/04/28 00:04:42;;;;;;;10.60;9.50;;;;;;;10.40;91.02;97486.67;109718;1251;67823;-67
2022/04/28 00:07:13;;;;;;;10.50;8.30;;;;;;;10.36;91.17;97487.95;109591;1254;68480;-66
2022/04/28 00:09:43;;;;;;;9.20;8.00;;;;;;;10.33;90.93;97490.65;109585;1251;59764;-67
2022/04/28 00:12:13;;;;;;;;;;;;;;;10.30;90.90;97486.67;109771;1251;59687;-67
2022/04/28 00:14:46;;;;;;;8.80;7.90;;;;;;;10.28;90.76;97489.42;109451;1254;70744;-67
2022/04/28 00:17:16;;;;;;;8.50;7.50;;;;;;;10.26;90.20;97485.02;109553;1253;68504;-67
2022/04/28 00:19:46;;;;;;;;;;;;;;;10.26;89.95;97482.41;109526;1254;69395;-66
2022/04/28 00:22:17;;;;;;;9.40;8.40;;;;;;;10.24;89.49;97483.05;109756;1251;59661;-66
2022/04/28 00:24:46;;;;;;;9.60;8.10;;;;;;;10.24;89.64;97484.46;109585;1254;60206;-67
2022/04/28 00:27:18;;;;;;;9.00;8.00;;;;;;;10.23;90.51;97486.48;109747;1251;70703;-68
2022/04/28 00:29:48;;;;;;;8.10;7.30;;;;;;;10.19;90.81;97480.27;109778;1251;67761;-67
2022/04/28 00:32:18;;;;;;;9.10;7.30;;;;;;;10.15;90.41;97471.81;109529;1253;68464;-68
2022/04/28 00:34:47;;;;;;;8.20;6.50;;;;;;;10.12;90.57;97472.00;109627;1251;59990;-68
2022/04/28 00:37:18;;;;;;;8.10;7.00;;;;;;;10.09;90.61;97465.15;109643;1251;59769;-68
2022/04/28 00:39:48;;;;;;;9.00;8.00;;;;;;;10.04;90.54;97463.41;109556;1253;70583;-68
2022/04/28 00:42:19;;;;;;;9.00;8.10;;;;;;;9.97;90.53;97459.67;109356;1254;67844;-67
2022/04/28 00:44:49;;;;;;;8.60;7.80;;;;;;;9.90;90.81;97452.30;109715;1251;69419;-67
2022/04/28 00:47:18;;;;;;;9.50;8.60;;;;;;;9.83;91.56;97450.91;109650;1251;59741;-66
2022/04/28 00:52:36;;;;;;;9.00;8.10;;;;;;;9.74;91.10;97441.48;109466;1251;70910;-66
2022/04/28 00:55:06;;;;;;;9.00;8.10;;;;;;;9.71;90.67;97436.08;109777;1251;67095;-64
2022/04/28 00:57:36;;;;;;;9.40;8.40;;;;;;;9.69;90.06;97435.45;109559;1251;68507;-66
2022/04/28 01:00:06;;;;;;;9.50;8.10;;;;;;;9.69;90.71;97432.73;109746;1251;59709;-66
2022/04/28 01:02:36;;;;;;;8.90;8.00;;;;;;;9.68;90.77;97425.61;109645;1251;59715;-66
2022/04/28 01:05:06;;;;;;;10.30;8.80;;;;;;;9.69;91.20;97421.60;109513;1251;70694;-68
2022/04/28 01:07:36;;;;;;;10.60;9.50;;;;;;;9.69;91.38;97416.36;109448;1251;68230;-68
2022/04/28 01:10:06;;;;;;;10.30;8.20;;;;;;;9.68;91.15;97415.20;109565;1251;69240;-68
2022/04/28 01:12:36;;;;;;;10.60;8.90;;;;;;;9.68;91.53;97411.92;109603;1253;59781;-67
2022/04/28 01:15:06;;;;;;;11.90;9.60;;;;;;;9.66;92.63;97419.02;109362;1254;59859;-66
2022/04/28 01:17:36;;;;;;;15.90;13.00;;;;;;;9.62;92.29;97415.62;109613;1253;70806;-65
2022/04/28 01:20:11;;;;;;;13.10;11.30;;;;;;;9.57;93.12;97416.64;109600;1251;68443;-66
2022/04/28 01:22:42;;;;;;;12.10;10.90;;;;;;;9.50;93.16;97416.11;109569;1251;68211;-65
2022/04/28 01:25:16;;;;;;;11.50;10.20;;;;;;;9.44;93.13;97415.29;109544;1254;59765;-66
2022/04/28 01:27:46;;;;;;;11.10;9.60;;;;;;;9.39;93.09;97419.96;109714;1251;59682;-65
2022/04/28 01:30:16;;;;;;;9.80;8.70;;;;;;;9.35;93.12;97418.02;109586;1251;71533;-66
2022/04/28 01:32:57;;;;;;;11.70;10.00;;;;;;;9.30;93.06;97418.36;109766;1251;67851;-66
2022/04/28 01:35:27;;;;;;;12.80;9.50;;;;;;;9.23;92.89;97417.09;109743;1251;68487;-66
2022/04/28 01:37:57;;;;;;;;;;;;;;;9.13;92.60;97411.62;109455;1253;59689;-68
2022/04/28 01:40:28;;;;;;;13.30;11.50;;;;;;;9.05;92.61;97411.48;109660;1251;59697;-67
2022/04/28 01:43:01;;;;;;;15.90;12.80;;;;;;;8.97;92.15;97407.83;109810;1250;70890;-67
2022/04/28 01:45:31;;;;;;;16.20;12.50;;;;;;;8.91;91.70;97405.68;109617;1251;67674;-69
2022/04/28 01:48:10;;;;;;;12.40;11.10;;;;;;;8.85;91.95;97397.21;109504;1251;68911;-67
2022/04/28 01:56:47;;;;;;;12.20;9.90;;;;;;;8.71;94.29;97374.17;109838;1251;70788;-67
2022/04/28 01:59:49;;;;;;;11.80;9.90;;;;;;;8.65;94.12;97365.46;109395;1251;67779;-65
2022/04/28 02:02:31;;;;;;;11.00;9.40;;;;;;;8.59;93.44;97361.52;109740;1251;68710;-66
2022/04/28 02:05:04;;;;;;;11.60;10.40;;;;;;;8.55;93.21;97356.95;109484;1254;59708;-67
2022/04/28 02:07:34;;;;;;;12.20;10.70;;;;;;;8.52;92.49;97358.02;109480;1253;59748;-66
2022/04/28 02:10:06;;;;;;;11.90;10.10;;;;;;;8.50;91.77;97354.31;109657;1250;70968;-67
2022/04/28 02:12:37;;;;;;;12.80;10.80;;;;;;;8.48;91.90;97347.98;109527;1251;68644;-66
2022/04/28 02:15:10;;;;;;;14.50;12.40;;;;;;;8.47;93.47;97348.96;109640;1251;69230;-66
2022/04/28 02:18:00;;;;;;;17.80;13.60;;;;;;;8.44;94.79;97345.34;109604;1251;59741;-68
2022/04/28 02:20:31;;;;;;;15.90;13.70;;;;;;;8.41;94.65;97346.40;109591;1251;59706;-68
2022/04/28 02:23:02;;;;;;;14.50;12.90;;;;;;;8.38;94.20;97345.21;109845;1251;70740;-70
2022/04/28 02:25:35;;;;;;;14.50;12.30;;;;;;;8.34;93.57;97343.83;109766;1251;68099;-68
2022/04/28 02:28:05;;;;;;;13.10;11.60;;;;;;;8.33;93.86;97344.25;109734;1250;69493;-65
2022/04/28 02:30:36;;;;;;;12.60;10.90;;;;;;;8.34;93.70;97339.73;109572;1251;59772;-68
2022/04/28 02:33:09;;;;;;;12.00;9.80;;;;;;;8.36;93.63;97330.02;109575;1252;59683;-66
2022/04/28 02:36:02;;;;;;;11.60;9.50;;;;;;;8.40;93.59;97329.77;109534;1251;71053;-67
2022/04/28 02:38:36;;;;;;;11.30;9.40;;;;;;;8.44;93.72;97326.77;109563;1253;69297;-68
2022/04/28 02:41:11;;;;;;;12.90;9.30;;;;;;;8.46;93.56;97326.45;109516;1253;68673;-67
2022/04/28 02:43:40;;;;;;;;;;;;;;;8.48;93.63;97328.06;109544;1254;59839;-67
2022/04/28 02:46:15;;;;;;;9.70;8.10;;;;;;;8.48;92.60;97333.81;109616;1251;59646;-66
2022/04/28 02:49:00;;;;;;;10.60;9.10;;;;;;;8.46;92.04;97334.29;109816;1251;71201;-67
2022/04/28 02:51:36;;;;;;;11.20;10.00;;;;;;;8.43;91.56;97337.41;109738;1251;68613;-67
2022/04/28 02:54:06;;;;;;;10.40;8.90;;;;;;;8.37;91.47;97335.55;109599;1252;68545;-66
2022/04/28 02:56:41;;;;;;;10.30;8.90;;;;;;;8.32;91.36;97341.55;109691;1251;59694;-66
2022/04/28 02:59:13;;;;;;;7.50;6.70;;;;;;;8.30;91.17;97349.36;109614;1250;59772;-67
2022/04/28 03:01:43;;;;;;;10.00;8.50;;;;;;;8.28;90.97;97351.89;109590;1251;71600;-68
2022/04/28 03:04:14;;;;;;;9.30;7.20;;;;;;;8.27;91.20;97353.66;109759;1251;68587;-66
2022/04/28 03:12:24;;;;;;;8.30;7.20;;;;;;;8.25;94.56;97374.31;109587;1251;59719;-68
2022/04/28 03:15:05;;;;;;;10.60;9.40;;;;;;;8.21;95.06;97382.55;109599;1251;72298;-67
2022/04/28 03:17:36;;;;;;;108.30;17.00;;;;;;;8.16;93.69;97388.08;109738;1251;68436;-66
2022/04/28 03:20:06;;;;;;;10.90;9.20;;;;;;;8.08;93.27;97393.05;109567;1251;69381;-66
2022/04/28 03:22:37;;;;;;;10.10;8.80;;;;;;;8.01;93.01;97400.48;109483;1251;60119;-66
2022/04/28 03:25:08;;;;;;;9.10;8.20;;;;;;;7.96;95.40;97397.34;109558;1254;59728;-66
2022/04/28 03:27:39;;;;;;;10.70;8.70;;;;;;;7.97;96.30;97394.30;109450;1253;71546;-66
2022/04/28 03:30:10;;;;;;;;;;;;;;;8.01;97.12;97401.52;109481;1254;68570;-67
2022/04/28 03:33:06;;;;;;;10.70;9.10;;;;;;;8.06;97.52;97404.30;109779;1250;70172;-66
2022/04/28 03:35:35;;;;;;;10.40;9.10;;;;;;;8.09;97.25;97410.88;109493;1251;59688;-66
2022/04/28 03:38:11;;;;;;;10.00;8.70;;;;;;;8.11;96.81;97413.71;109551;1251;59710;-66
2022/04/28 03:40:43;;;;;;;7.70;6.40;;;;;;;8.12;96.37;97413.48;109412;1254;70985;-67
2022/04/28 03:43:14;;;;;;;9.00;6.90;;;;;;;8.14;96.03;97413.88;109687;1251;68697;-67
2022/04/28 03:45:44;;;;;;;8.80;7.50;;;;;;;8.17;96.17;97420.61;109614;1251;68980;-67
2022/04/28 03:48:21;;;;;;;8.30;7.40;;;;;;;8.24;96.00;97425.27;109574;1252;59880;-67
2022/04/28 03:50:52;;;;;;;8.50;7.70;;;;;;;8.28;95.93;97426.20;109510;1251;59690;-67
2022/04/28 03:53:22;;;;;;;8.80;7.40;;;;;;;8.32;95.59;97428.00;109504;1253;71537;-67
2022/04/28 03:55:54;;;;;;;9.70;8.40;;;;;;;8.36;95.72;97431.58;109380;1254;68055;-64
2022/04/28 03:58:25;;;;;;;11.50;10.30;;;;;;;8.41;95.82;97430.41;109609;1252;68680;-67
2022/04/28 04:00:54;;;;;;;14.30;12.50;;;;;;;8.46;95.62;97429.98;109826;1253;59664;-68
2022/04/28 04:03:32;;;;;;;12.10;10.80;;;;;;;8.48;95.29;97431.52;109795;1250;59701;-66
2022/04/28 04:06:02;;;;;;;9.80;8.10;;;;;;;8.51;95.14;97431.56;109747;1251;71636;-66
2022/04/28 04:08:31;;;;;;;11.80;10.20;;;;;;;8.52;94.99;97434.60;109680;1251;68560;-66
2022/04/28 04:11:11;;;;;;;10.40;8.30;;;;;;;8.54;94.83;97432.91;109880;1251;68277;-66
2022/04/28 04:13:41;;;;;;;9.00;8.10;;;;;;;8.56;93.49;97436.63;109632;1251;59742;-65
2022/04/28 04:16:11;;;;;;;;;;;;;;;8.57;92.70;97437.41;109580;1253;59763;-65
2022/04/28 04:18:55;;;;;;;10.00;8.50;;;;;;;8.56;91.80;97436.94;109658;1251;72252;-66
2022/04/28 04:21:28;;;;;;;11.50;10.10;;;;;;;8.55;91.52;97442.58;109514;1251;67787;-65
2022/04/28 04:23:58;;;;;;;11.80;10.60;;;;;;;8.53;93.66;97443.02;109532;1251;69225;-67
2022/04/28 04:26:28;;;;;;;13.10;11.70;;;;;;;8.54;93.78;97447.15;109553;1251;59783;-65
2022/04/28 04:28:58;;;;;;;12.60;11.30;;;;;;;8.54;94.00;97452.20;109435;1253;59627;-63
2022/04/28 04:34:56;;;;;;;15.10;13.50;;;;;;;8.57;94.16;97455.11;109632;1250;67826;-65
2022/04/28 04:37:32;;;;;;;17.40;14.60;;;;;;;8.58;94.11;97457.80;109487;1253;68931;-65
2022/04/28 04:40:02;;;;;;;13.90;12.10;;;;;;;8.59;94.06;97451.01;109543;1251;59727;-65
2022/04/28 04:42:31;;;;;;;17.90;15.10;;;;;;;8.60;94.34;97453.36;109479;1251;59702;-65
2022/04/28 04:45:02;;;;;;;17.00;13.10;;;;;;;8.60;94.63;97454.79;109375;1253;71349;-67
2022/04/28 04:47:46;;;;;;;14.30;12.50;;;;;;;8.61;94.42;97456.62;109553;1253;67819;-66
2022/04/28 04:50:20;;;;;;;15.70;13.50;;;;;;;8.64;94.67;97463.15;109520;1253;70177;-66
2022/04/28 04:53:04;;;;;;;12.00;9.90;;;;;;;8.69;94.59;97463.71;109515;1251;59800;-66
2022/04/28 04:55:36;;;;;;;11.60;10.30;;;;;;;8.73;93.94;97465.23;109627;1251;59684;-64
2022/04/28 04:58:09;;;;;;;12.80;11.50;;;;;;;8.77;94.02;97470.33;109635;1251;70889;-65
2022/04/28 05:00:38;;;;;;;10.90;9.90;;;;;;;8.82;93.98;97469.71;109554;1251;68781;-66
2022/04/28 05:03:41;;;;;;;11.30;9.70;;;;;;;8.86;93.89;97472.52;109582;1251;68168;-65
2022/04/28 05:06:32;;;;;;;12.30;11.10;;;;;;;8.91;93.21;97472.06;109634;1251;59893;-65
2022/04/28 05:09:12;;;;;;;13.60;11.40;;;;;;;8.95;93.82;97479.95;109481;1254;59641;-64
2022/04/28 05:11:41;;;;;;;13.50;11.60;;;;;;;8.99;94.28;97479.67;109460;1251;71793;-67
2022/04/28 05:14:13;;;;;;;13.30;11.00;;;;;;;9.03;94.42;97482.38;109582;1251;68822;-66
2022/04/28 05:16:43;;;;;;;10.90;9.70;;;;;;;9.07;94.27;97488.73;109574;1251;68714;-66
2022/04/28 05:19:28;;;;;;;16.00;13.80;;;;;;;9.11;93.56;97488.48;109702;1251;59745;-67
2022/04/28 05:22:03;;;;;;;18.80;16.80;;;;;;;9.15;92.96;97485.59;109513;1253;59664;-66
2022/04/28 05:24:38;;;;;;;18.70;15.90;;;;;;;9.19;93.20;97485.34;109636;1251;70820;-66
2022/04/28 05:27:27;;;;;;;22.60;18.30;;;;;;;9.23;92.92;97484.05;109533;1252;67847;-67
2022/04/28 05:29:56;;;;;;;11.00;9.60;;;;;;;9.26;92.77;97489.08;109572;1254;69462;-68
2022/04/28 05:32:43;;;;;;;10.30;9.00;;;;;;;9.29;91.94;97490.91;109479;1253;59755;-67
2022/04/28 05:35:41;;;;;;;7.60;6.80;;;;;;;9.34;91.10;97494.95;109879;1251;59659;-68
2022/04/28 05:38:10;;;;;;;11.10;9.50;;;;;;;9.37;90.93;97499.42;109766;1251;71600;-65
2022/04/28 05:40:42;;;;;;;11.50;9.90;;;;;;;9.41;91.06;97505.10;109642;1253;69372;-66
2022/04/28 05:46:01;;;;;;;6.50;5.60;;;;;;;9.46;90.82;97507.21;109589;1253;59722;-67
2022/04/28 05:48:34;;;;;;;6.80;5.60;;;;;;;9.50;90.28;97505.34;109503;1251;59788;-67
2022/04/28 05:51:12;;;;;;;6.30;5.40;;;;;;;9.54;89.97;97506.86;109593;1253;70549;-67
2022/04/28 05:53:41;;;;;;;6.90;5.60;;;;;;;9.55;89.58;97509.69;109840;1251;68378;-69
2022/04/28 05:56:11;;;;;;;4.50;4.10;;;;;;;9.58;89.44;97513.69;109426;1253;69997;-69
2022/04/28 05:58:55;;;;;;;4.60;4.20;;;;;;;9.61;88.98;97517.84;109677;1251;59711;-67
2022/04/28 06:01:43;;;;;;;5.20;4.60;;;;;;;9.62;89.03;97521.80;109774;1251;59643;-69
2022/04/28 06:04:15;;;;;;;5.90;4.30;;;;;;;9.63;89.16;97525.72;109355;1254;70856;-70
2022/04/28 06:06:47;;;;;;;4.60;4.00;;;;;;;9.64;89.00;97529.47;109607;1251;67837;-67
2022/04/28 06:09:22;;;;;;;4.00;3.60;;;;;;;9.65;88.80;97527.84;109772;1251;68618;-67
2022/04/28 06:11:51;;;;;;;5.70;4.70;;;;;;;9.67;88.69;97527.38;109759;1251;59766;-68
2022/04/28 06:14:20;;;;;;;6.00;4.70;;;;;;;9.69;88.68;97528.39;109514;1252;59712;-67
2022/04/28 06:17:08;;;;;;;7.60;6.80;;;;;;;9.70;88.66;97526.59;109433;1254;70801;-69
2022/04/28 06:19:38;;;;;;;7.90;6.80;;;;;;;9.73;88.64;97525.58;109699;1251;68596;-66
2022/04/28 06:22:55;;;;;;;8.70;7.30;;;;;;;9.78;88.88;97524.36;109510;1253;68739;-69
2022/04/28 06:25:24;;;;;;;8.80;7.90;;;;;;;9.81;89.00;97524.16;109535;1252;59753;-68
2022/04/28 06:27:54;;;;;;;9.90;7.70;;;;;;;9.84;88.67;97528.16;109562;1253;59709;-69
2022/04/28 06:30:23;;;;;;;8.20;7.30;;;;;;;9.83;88.69;97527.64;109561;1251;70890;-66
2022/04/28 06:32:55;;;;;;;21.80;19.50;;;;;;;9.84;88.81;97531.26;109356;1253;69334;-68
2022/04/28 06:35:51;;;;;;;21.70;19.40;;;;;;;9.84;88.79;97529.71;109595;1252;69531;-68
2022/04/28 06:38:23;;;;;;;13.30;11.90;;;;;;;9.83;88.64;97527.85;109577;1252;59781;-66
2022/04/28 06:40:52;;;;;;;10.00;8.60;;;;;;;9.84;88.58;97531.09;109744;1251;59788;-66
2022/04/28 06:43:22;;;;;;;13.40;12.00;;;;;;;9.85;88.46;97534.84;109551;1253;71702;-66
2022/04/28 06:46:12;;;;;;;8.30;7.00;;;;;;;9.85;88.82;97536.08;109550;1253;68699;-67
2022/04/28 06:49:08;;;;;;;7.30;6.50;;;;;;;9.87;88.50;97537.48;109441;1253;69766;-64
2022/04/28 06:51:56;;;;;;;7.00;6.10;;;;;;;9.86;87.81;97539.13;109571;1253;59726;-67
2022/04/28 06:54:48;;;;;;;8.00;7.00;;;;;;;9.87;87.87;97538.04;109545;1253;59720;-67
2022/04/28 06:57:20;;;;;;;7.20;6.40;;;;;;;9.86;88.36;97537.73;109475;1253;69790;-67
2022/04/28 06:59:50;;;;;;;7.20;6.50;;;;;;;9.88;88.07;97538.09;109568;1253;67900;-66
2022/04/28 07:02:20;;;;;;;8.70;6.00;;;;;;;9.90;87.95;97538.88;109411;1253;68482;-67
2022/04/28 07:04:52;;;;;;;7.50;6.50;;;;;;;9.90;87.79;97539.88;109787;1251;59734;-69
2022/04/28 07:07:24;;;;;;;6.70;5.40;;;;;;;9.91;88.27;97542.96;109621;1252;60093;-66
2022/04/28 07:09:57;;;;;;;7.80;6.30;;;;;;;9.92;88.07;97546.02;109747;1251;72356;-67
2022/04/28 07:12:42;;;;;;;7.20;5.40;;;;;;;9.92;88.02;97554.17;109705;1251;68553;-66
2022/04/28 07:15:29;;;;;;;8.00;6.90;;;;;;;9.93;88.12;97556.44;109531;1251;69639;-67
2022/04/28 07:18:23;;;;;;;6.70;5.70;;;;;;;9.93;87.97;97558.33;109508;1251;59760;-67
2022/04/28 07:20:53;;;;;;;7.00;6.30;;;;;;;9.93;87.84;97561.83;109549;1251;59770;-67
2022/04/28 07:23:24;;;;;;;9.30;6.70;;;;;;;9.94;87.79;97562.09;109805;1251;71578;-66
2022/04/28 07:25:53;;;;;;;7.20;6.40;;;;;;;9.97;87.87;97564.65;109526;1251;68621;-66
2022/04/28 07:28:23;;;;;;;7.10;5.70;;;;;;;10.02;87.70;97566.62;109506;1251;68592;-69
2022/04/28 07:31:05;;;;;;;6.60;6.00;;;;;;;10.05;87.43;97569.31;109767;1251;59709;-69
2022/04/28 07:33:53;;;;;;;6.90;6.20;;;;;;;10.12;87.35;97571.28;109789;1250;59682;-68
2022/04/28 07:36:40;;;;;;;6.60;6.00;;;;;;;10.17;87.26;97576.69;109696;1251;71111;-68
2022/04/28 07:39:19;;;;;;;6.10;4.70;;;;;;;10.23;87.60;97582.27;109618;1251;68411;-68
2022/04/28 07:42:11;;;;;;;5.90;4.70;;;;;;;10.26;86.98;97581.86;109685;1251;69451;-67
2022/04/28 07:44:44;;;;;;;5.70;5.10;;;;;;;10.29;87.08;97585.02;109577;1251;59675;-68
2022/04/28 07:47:14;;;;;;;6.70;5.30;;;;;;;10.27;86.47;97587.02;109747;1251;59704;-67
2022/04/28 07:49:49;;;;;;;7.10;5.40;;;;;;;10.25;86.36;97591.53;109703;1251;71924;-67
2022/04/28 07:52:20;;;;;;;6.70;5.00;;;;;;;10.21;86.50;97595.75;109546;1251;68845;-69
2022/04/28 07:54:49;;;;;;;4.60;3.90;;;;;;;10.18;86.67;97600.33;109568;1251;69329;-67
2022/04/28 07:57:22;;;;;;;2.80;2.40;;;;;;;10.14;86.50;97602.52;109565;1251;59767;-66
2022/04/28 07:59:51;;;;;;;2.80;2.20;;;;;;;10.03;85.39;97603.98;109753;1251;59727;-66
2022/04/28 08:02:23;;;;;;;3.80;2.40;;;;;;;9.96;85.58;97606.20;109804;1250;72289;-67
2022/04/28 08:04:53;;;;;;;2.50;1.80;;;;;;;9.89;86.14;97611.88;109637;1251;66875;-68
2022/04/28 08:07:22;;;;;;;3.30;2.20;;;;;;;9.82;86.41;97618.26;109491;1253;68774;-67
2022/04/28 08:09:54;;;;;;;3.20;2.00;;;;;;;9.76;86.51;97622.31;109604;1252;59851;-65
2022/04/28 08:12:25;;;;;;;2.30;1.50;;;;;;;9.68;86.93;97621.26;109508;1251;59755;-67
2022/04/28 08:15:32;;;;;;;3.10;1.50;;;;;;;9.60;86.60;97622.30;109848;1250;72307;-67
2022/04/28 08:18:02;;;;;;;4.30;1.60;;;;;;;9.51;86.81;97632.98;109636;1251;67978;-66
2022/04/28 08:20:32;;;;;;;5.30;1.90;;;;;;;9.50;86.91;97630.30;109809;1250;68653;-68
2022/04/28 08:23:07;;;;;;;;;;;;;;;9.48;87.58;97631.82;109873;1249;59726;-68
2022/04/28 08:25:37;;;;;;;4.10;2.20;;;;;;;9.46;87.27;97635.39;109509;1251;59779;-66
2022/04/28 08:28:07;;;;;;;3.20;1.80;;;;;;;9.47;87.23;97638.84;109635;1250;70674;-65
2022/04/28 08:30:37;;;;;;;2.80;2.10;;;;;;;9.49;87.26;97635.89;109853;1250;67690;-67
2022/04/28 08:33:06;;;;;;;4.70;4.00;;;;;;;9.52;87.40;97637.26;109800;1250;69469;-69
2022/04/28 08:35:36;;;;;;;6.10;3.50;;;;;;;9.58;87.60;97637.21;109621;1253;60155;-69
2022/04/28 08:38:05;;;;;;;4.10;2.30;;;;;;;9.65;87.66;97640.24;109531;1254;59727;-67
2022/04/28 08:40:35;;;;;;;4.00;3.20;;;;;;;9.74;87.46;97641.78;109540;1250;71592;-68
2022/04/28 08:43:06;;;;;;;1.80;1.70;;;;;;;9.83;87.47;97644.69;109544;1251;68395;-67
2022/04/28 08:46:50;;;;;;;2.70;1.40;;;;;;;9.88;86.61;97642.05;109680;1249;68650;-68
2022/04/28 08:48:35;;;;;;;2.10;1.50;;;;;;;9.96;86.54;97644.27;109775;1251;59784;-69
2022/04/28 08:51:05;;;;;;;3.50;1.50;;;;;;;10.03;86.25;97646.11;109840;1251;59695;-68
2022/04/28 08:53:34;;;;;;;2.90;1.50;;;;;;;10.03;85.51;97644.87;109616;1251;72233;-68
2022/04/28 08:56:04;;;;;;;2.70;1.20;;;;;;;10.01;85.44;97645.34;109896;1251;68777;-67
2022/04/28 08:58:33;;;;;;;4.00;1.60;;;;;;;9.95;84.95;97647.32;109439;1251;68676;-66
2022/04/28 09:01:05;;;;;;;1.80;1.20;;;;;;;9.92;85.13;97649.95;109613;1253;59738;-66
2022/04/28 09:04:04;;;;;;;2.20;1.50;;;;;;;9.89;85.70;97646.84;109469;1251;59641;-64
2022/04/28 09:06:43;;;;;;;2.00;1.40;;;;;;;9.91;86.10;97649.48;109136;1253;70928;-67
2022/04/28 09:09:20;;;;;;;2.20;1.50;;;;;;;9.94;85.77;97646.18;109576;1251;68665;-66
2022/04/28 09:12:09;;;;;;;2.70;1.40;;;;;;;9.98;85.92;97646.45;109731;1251;68529;-66
2022/04/28 09:14:55;;;;;;;2.80;1.50;;;;;;;10.01;85.89;97647.41;109582;1253;59787;-68
2022/04/28 09:17:41;;;;;;;1.70;1.20;;;;;;;10.02;85.65;97647.07;109574;1253;59727;-67
2022/04/28 09:20:22;;;;;;;1.40;1.20;;;;;;;10.01;85.30;97647.27;109519;1252;71674;-67
2022/04/28 09:22:55;;;;;;;3.10;2.10;;;;;;;10.01;85.35;97650.96;109481;1252;68582;-68
2022/04/28 09:25:31;;;;;;;1.90;1.40;;;;;;;10.01;85.25;97653.89;109509;1253;69240;-68
2022/04/28 09:28:02;;;;;;;2.20;1.40;;;;;;;10.03;85.58;97650.45;109509;1254;59784;-68
2022/04/28 09:30:50;;;;;;;2.20;1.40;;;;;;;10.05;85.55;97655.91;109545;1253;59698;-67
2022/04/28 09:33:36;;;;;;;3.20;1.40;;;;;;;10.09;85.67;97653.70;109609;1251;71855;-68
2022/04/28 09:36:18;;;;;;;2.60;1.60;;;;;;;10.16;85.67;97661.95;109953;1251;67843;-69
2022/04/28 09:38:55;;;;;;;2.80;1.50;;;;;;;10.24;85.67;97664.21;109924;1250;69454;-69
2022/04/28 09:44:21;;;;;;;1.70;1.40;;;;;;;10.36;84.50;97666.73;109614;1251;59738;-67
2022/04/28 09:46:55;;;;;;;2.00;1.30;;;;;;;10.36;83.89;97664.14;109626;1251;71072;-68
2022/04/28 09:49:25;;;;;;;2.30;1.30;;;;;;;10.40;84.35;97669.43;109614;1251;67846;-70
2022/04/28 09:52:14;;;;;;;1.70;1.30;;;;;;;10.41;84.29;97671.30;109721;1251;69941;-69
2022/04/28 09:55:15;;;;;;;2.40;1.50;;;;;;;10.43;83.82;97670.94;109181;1251;59762;-68
2022/04/28 09:58:08;;;;;;;2.70;1.40;;;;;;;10.49;84.12;97677.36;109751;1251;59749;-69
2022/04/28 10:00:38;;;;;;;2.20;1.30;;;;;;;10.54;84.08;97682.06;109494;1253;71636;-70
2022/04/28 10:03:09;;;;;;;2.50;1.80;;;;;;;10.59;84.28;97681.53;109770;1251;68929;-68
2022/04/28 10:05:41;;;;;;;3.00;1.50;;;;;;;10.57;83.67;97684.10;109533;1254;68794;-69
2022/04/28 10:08:35;;;;;;;2.20;1.50;;;;;;;10.49;83.24;97680.30;109391;1253;59758;-70
2022/04/28 10:11:07;;;;;;;2.50;1.80;;;;;;;10.42;83.28;97676.27;109663;1253;59629;-68
2022/04/28 10:13:37;;;;;;;2.80;1.90;;;;;;;10.38;83.59;97679.45;109521;1253;72204;-69
2022/04/28 10:16:11;;;;;;;4.00;1.90;;;;;;;10.37;84.18;97681.99;109597;1252;68664;-67
2022/04/28 10:19:14;;;;;;;2.60;1.70;;;;;;;10.38;84.44;97681.77;109538;1253;70200;-67
2022/04/28 10:22:06;;;;;;;2.20;1.70;;;;;;;10.38;84.22;97684.71;109602;1253;59749;-68
2022/04/28 10:33:28;;;;;;;3.00;1.60;;;;;;;10.70;83.77;97671.89;109578;1250;68911;-69
2022/04/28 10:36:01;;;;;;;;;;;;;;;10.88;83.62;97672.56;109840;1250;59676;-68
2022/04/28 10:38:32;;;;;;;;;;;;;;;11.06;83.27;97670.73;109885;1250;59676;-67
2022/04/28 10:41:02;;;;;;;;;;;;;;;11.22;82.35;97673.15;109779;1250;71836;-65
2022/04/28 10:43:31;;;;;;;;;;;;;;;11.36;82.24;97674.91;109667;1251;67935;-69
2022/04/28 10:46:08;;;;;;;;;;;;;;;11.49;81.79;97675.34;109728;1251;70225;-65
2022/04/28 10:48:42;;;;;;;;;;;;;;;11.54;81.78;97676.44;109779;1251;59948;-68
2022/04/28 10:51:22;;;;;;;;;;;;;;;11.59;81.05;97676.39;109786;1251;59747;-67
2022/04/28 10:53:59;;;;;;;;;;;;;;;11.68;81.68;97671.03;109619;1251;71898;-67
2022/04/28 10:56:56;;;;;;;;;;;;;;;11.76;81.70;97675.50;109605;1253;68622;-69
2022/04/28 10:59:25;;;;;;;;;;;;;;;11.80;80.29;97683.99;109785;1251;68977;-69
2022/04/28 11:01:54;;;;;;;;;;;;;;;11.80;80.60;97686.79;109761;1250;59768;-68
2022/04/28 11:04:24;;;;;;;;;;;;;;;11.81;79.53;97685.14;109797;1250;59688;-67
2022/04/28 11:06:57;;;;;;;;;;;;;;;11.77;79.43;97689.41;109867;1250;71585;-67
2022/04/28 11:09:33;;;;;;;;;;;;;;;11.72;79.53;97693.43;109794;1250;68604;-66
2022/04/28 11:12:09;;;;;;;;;;;;;;;11.76;80.06;97694.89;109811;1251;68938;-67
2022/04/28 11:14:46;;;;;;;;;;;;;;;11.72;78.67;97693.91;109865;1250;59758;-66
2022/04/28 11:17:16;;;;;;;;;;;;;;;11.70;78.23;97699.14;109662;1250;59765;-66
2022/04/28 11:19:45;;;;;;;;;;;;;;;11.64;78.78;97695.17;109645;1250;70884;-66
2022/04/28 11:22:14;;;;;;;;;;;;;;;11.61;78.90;97700.34;109830;1250;68070;-66
2022/04/28 11:24:44;;;;;;;;;;;;;;;11.59;78.29;97699.45;109856;1250;70103;-66
2022/04/28 11:27:25;;;;;;;;;;;;;;;11.66;79.10;97695.95;109694;1250;59780;-68
2022/04/28 11:30:26;;;;;;;;;;;;;;;11.74;78.98;97693.77;109720;1249;59704;-65
2022/04/28 11:32:59;;;;;;;;;;;;;;;11.77;77.93;97699.00;109830;1250;71563;-68
2022/04/28 11:35:31;;;;;;;;;;;;;;;11.83;78.01;97697.01;109818;1250;68600;-68
2022/04/28 11:38:00;;;;;;;;;;;;;;;11.98;77.92;97694.31;109633;1252;68551;-69
2022/04/28 11:40:31;;;;;;;;;;;;;;;12.18;78.24;97692.34;109814;1251;59683;-68
2022/04/28 11:43:01;;;;;;;;;;;;;;;12.40;77.94;97693.80;109813;1250;59710;-68
2022/04/28 11:45:32;;;;;;;;;;;;;;;12.51;76.46;97694.70;109836;1250;72248;-70
2022/04/28 11:48:01;;;;;;;;;;;;;;;12.66;77.00;97693.39;109682;1250;68551;-68
2022/04/28 11:50:34;;;;;;;;;;;;;;;12.78;76.17;97691.44;109836;1250;69416;-68
2022/04/28 11:53:07;;;;;;;;;;;;;;;12.97;76.58;97692.06;109569;1250;60163;-66
2022/04/28 11:55:38;;;;;;;;;;;;;;;13.08;75.42;97691.52;109814;1249;59748;-68
2022/04/28 11:58:08;;;;;;;;;;;;;;;13.18;74.82;97693.88;109833;1250;71553;-67
2022/04/28 12:00:38;;;;;;;;;;;;;;;13.29;74.90;97693.12;109646;1250;67944;-67
2022/04/28 12:03:08;;;;;;;;;;;;;;;13.37;73.78;97690.02;109616;1253;69500;-68
2022/04/28 12:05:37;;;;;;;;;;;;;;;13.45;73.28;97689.30;109705;1250;59777;-68
2022/04/28 12:08:06;;;;;;;;;;;;;;;13.40;72.38;97688.00;109876;1250;59684;-68
2022/04/28 12:16:18;;;;;;;;;;;;;;;13.28;72.64;97679.48;109796;1250;69473;-67
2022/04/28 12:21:36;;;;;;;;;;;;;;;13.30;69.49;97682.52;109856;1250;59702;-68
2022/04/28 12:24:13;;;;;;;;;;;;;;;13.34;70.53;97679.40;109780;1250;72171;-67
2022/04/28 12:26:44;;;;;;;;;;;;;;;13.38;69.97;97678.86;109630;1251;66832;-66
2022/04/28 12:29:16;;;;;;;;;;;;;;;13.33;70.09;97678.61;109770;1250;69552;-67
2022/04/28 12:31:54;;;;;;;;;;;;;;;13.36;70.16;97680.98;109674;1250;59767;-65
2022/04/28 12:34:24;;;;;;;;;;;;;;;13.53;71.33;97680.85;110007;1250;59714;-68
2022/04/28 12:36:58;;;;;;;;;;;;;;;13.79;70.21;97676.58;109487;1250;70995;-68
2022/04/28 12:39:34;;;;;;;;;;;;;;;14.16;69.13;97673.88;109842;1250;66829;-67
2022/04/28 12:42:10;;;;;;;;;;;;;;;14.68;68.26;97675.20;109801;1250;69077;-68
2022/04/28 12:44:45;;;;;;;;;;;;;;;15.18;67.18;97679.09;109844;1250;59765;-67
2022/04/28 12:47:14;;;;;;;;;;;;;;;15.59;64.98;97680.55;109771;1250;59748;-67
2022/04/28 12:49:44;;;;;;;;;;;;;;;15.88;63.03;97679.10;109801;1250;72394;-67
2022/04/28 12:52:26;;;;;;;;;;;;;;;15.95;63.05;97675.27;109815;1250;68907;-67
2022/04/28 12:55:02;;;;;;;;;;;;;;;16.11;61.86;97674.34;109815;1250;69427;-68
2022/04/28 12:57:32;;;;;;;;;;;;;;;16.37;60.22;97667.92;109636;1250;59776;-67
2022/04/28 13:00:03;;;;;;;;;;;;;;;16.51;58.40;97663.79;109813;1250;59682;-67